Terminal Aerodrome Forecast
Issued by NWS

Home | Current Version | Previous Version | Text Only | Print | Product List | Glossary On
Versions: 1 2 3 4 5 6 7 8 9 10 11 12 13 14 15 16 17 18 19 20 21 22 23 24 25
000
FTUS41 KOKX 310800 AAA
TAFGON
TAF AMD
KGON 310837Z 3109/0106 VRB03KT P6SM SKC
     FM311300 20008KT P6SM SKC
     FM311800 19010KT P6SM FEW050 SCT250
     FM010000 20005KT P6SM BKN250=

USA.gov is the U.S. government's official web portal to all federal, state and local government web resources and services.